createdAt,value
2019-03-03T00:00:05.423Z,9.96
2019-03-03T00:01:05.399Z,9.90
2019-03-03T00:02:05.382Z,9.96
2019-03-03T00:03:05.367Z,9.96
2019-03-03T00:04:05.332Z,9.94
2019-03-03T00:05:05.310Z,9.97
2019-03-03T00:06:05.294Z,9.94
2019-03-03T00:07:05.269Z,9.93
2019-03-03T00:08:05.241Z,9.96
2019-03-03T00:09:05.219Z,9.99
2019-03-03T00:10:05.196Z,9.97
2019-03-03T00:11:05.179Z,9.97
2019-03-03T00:12:05.154Z,9.91
2019-03-03T00:13:05.150Z,10.01
2019-03-03T00:14:05.111Z,9.93
2019-03-03T00:15:05.085Z,9.96
2019-03-03T00:16:05.072Z,9.91
2019-03-03T00:17:05.037Z,9.94
2019-03-03T00:18:05.017Z,9.94
2019-03-03T00:19:04.995Z,9.96
2019-03-03T00:20:04.974Z,9.96
2019-03-03T00:21:04.950Z,9.96
2019-03-03T00:22:04.932Z,9.93
2019-03-03T00:23:04.905Z,9.90
2019-03-03T00:24:04.882Z,9.97
2019-03-03T00:25:04.864Z,9.90
2019-03-03T00:26:04.837Z,9.90
2019-03-03T00:27:04.814Z,9.87
2019-03-03T00:28:04.793Z,9.91
2019-03-03T00:29:04.770Z,9.94
2019-03-03T00:30:04.757Z,9.94
2019-03-03T00:31:04.725Z,9.97
2019-03-03T00:32:04.702Z,10.05
2019-03-03T00:33:04.682Z,9.89
2019-03-03T00:34:04.657Z,9.89
2019-03-03T00:35:04.634Z,9.99
2019-03-03T00:36:04.623Z,9.94
2019-03-03T00:37:04.594Z,9.96
2019-03-03T00:38:04.569Z,10.01
2019-03-03T00:39:04.543Z,10.01
2019-03-03T00:40:04.531Z,9.91
2019-03-03T00:41:04.502Z,9.90
2019-03-03T00:42:04.478Z,9.90
2019-03-03T00:43:04.460Z,9.99
2019-03-03T00:44:04.433Z,9.94
2019-03-03T00:45:04.422Z,9.97
2019-03-03T00:46:04.396Z,10.02
2019-03-03T00:47:04.368Z,9.97
2019-03-03T00:48:04.349Z,9.96
2019-03-03T00:49:04.321Z,9.94
2019-03-03T00:50:04.300Z,9.97
2019-03-03T00:51:04.282Z,10.01
2019-03-03T00:52:04.253Z,9.91
2019-03-03T00:53:04.232Z,10.01
2019-03-03T00:54:04.207Z,9.96
2019-03-03T00:55:04.186Z,10.01
2019-03-03T00:56:04.169Z,9.94
2019-03-03T00:57:04.147Z,9.89
2019-03-03T00:58:04.124Z,9.96
2019-03-03T00:59:04.102Z,10.01
2019-03-03T01:00:04.073Z,10.04
2019-03-03T01:01:04.076Z,9.99
2019-03-03T01:02:04.029Z,10.11
2019-03-03T01:03:04.009Z,10.09
2019-03-03T01:04:03.991Z,10.07
2019-03-03T01:05:03.966Z,10.09
2019-03-03T01:06:03.938Z,10.11
2019-03-03T01:07:03.915Z,10.08
2019-03-03T01:08:03.892Z,10.07
2019-03-03T01:09:03.874Z,10.09
2019-03-03T01:10:03.848Z,10.05
2019-03-03T01:11:03.835Z,10.04
2019-03-03T01:12:03.809Z,10.08
2019-03-03T01:13:03.780Z,10.07
2019-03-03T01:14:03.755Z,10.11
2019-03-03T01:15:03.750Z,10.09
2019-03-03T01:16:03.712Z,10.09
2019-03-03T01:17:03.695Z,10.04
2019-03-03T01:18:03.668Z,10.04
2019-03-03T01:19:03.647Z,10.09
2019-03-03T01:20:03.621Z,10.08
2019-03-03T01:21:03.599Z,10.09
2019-03-03T01:22:03.585Z,10.07
2019-03-03T01:23:03.560Z,10.14
2019-03-03T01:24:03.538Z,10.11
2019-03-03T01:25:03.512Z,10.07
2019-03-03T01:26:03.486Z,10.09
2019-03-03T01:27:03.469Z,10.20
2019-03-03T01:28:03.452Z,10.07
2019-03-03T01:29:03.425Z,10.05
2019-03-03T01:30:03.405Z,10.08
2019-03-03T01:31:03.373Z,10.07
2019-03-03T01:32:03.353Z,10.08
2019-03-03T01:33:03.333Z,10.17
2019-03-03T01:34:03.306Z,10.08
2019-03-03T01:35:03.284Z,10.05
2019-03-03T01:36:03.265Z,10.04
2019-03-03T01:37:03.242Z,10.04
2019-03-03T01:38:03.214Z,10.05
2019-03-03T01:39:03.196Z,10.14
2019-03-03T01:40:03.172Z,10.14
2019-03-03T01:41:03.151Z,10.04
2019-03-03T01:42:03.134Z,10.04
2019-03-03T01:43:03.110Z,10.09
2019-03-03T01:44:03.084Z,10.09
2019-03-03T01:45:03.059Z,10.01
2019-03-03T01:46:03.035Z,10.11
2019-03-03T01:47:03.019Z,10.07
2019-03-03T01:48:02.993Z,10.05
2019-03-03T01:49:02.975Z,10.05
2019-03-03T01:50:02.953Z,10.01
2019-03-03T01:51:02.924Z,10.07
2019-03-03T01:52:02.906Z,10.02
2019-03-03T01:53:02.879Z,10.11
2019-03-03T01:54:02.857Z,10.12
2019-03-03T01:55:02.834Z,10.11
2019-03-03T01:56:02.810Z,10.01
2019-03-03T01:57:02.789Z,10.01
2019-03-03T01:58:02.768Z,10.05
2019-03-03T01:59:02.744Z,10.09
2019-03-03T02:00:02.722Z,10.18
2019-03-03T02:01:02.699Z,10.07
2019-03-03T02:02:02.675Z,10.01
2019-03-03T02:03:02.652Z,10.07
2019-03-03T02:04:02.656Z,10.17
2019-03-03T02:05:02.608Z,10.05
2019-03-03T02:06:02.587Z,10.17
2019-03-03T02:07:02.562Z,10.02
2019-03-03T02:08:02.542Z,10.11
2019-03-03T02:09:02.520Z,10.18
2019-03-03T02:10:02.496Z,10.09
2019-03-03T02:11:02.473Z,10.12
2019-03-03T02:12:02.451Z,10.05
2019-03-03T02:13:02.430Z,10.04
2019-03-03T02:14:02.413Z,10.08
2019-03-03T02:15:02.383Z,10.15
2019-03-03T02:16:02.360Z,10.22
2019-03-03T02:17:02.338Z,10.08
2019-03-03T02:18:02.316Z,10.17
2019-03-03T02:19:02.292Z,10.18
2019-03-03T02:20:02.272Z,10.17
2019-03-03T02:21:02.249Z,10.07
2019-03-03T02:22:02.225Z,10.17
2019-03-03T02:23:02.202Z,10.15
2019-03-03T02:24:02.182Z,10.14
2019-03-03T02:25:02.159Z,10.20
2019-03-03T02:26:02.136Z,10.12
2019-03-03T02:27:02.119Z,10.17
2019-03-03T02:28:02.092Z,10.18
2019-03-03T02:29:02.069Z,10.15
2019-03-03T02:30:02.057Z,10.12
2019-03-03T02:31:02.023Z,10.18
2019-03-03T02:32:02.012Z,10.14
2019-03-03T02:33:01.986Z,10.15
2019-03-03T02:34:01.955Z,10.14
2019-03-03T02:35:01.933Z,10.17
2019-03-03T02:36:01.910Z,10.17
2019-03-03T02:37:01.896Z,10.17
2019-03-03T02:38:01.867Z,10.27
2019-03-03T02:39:01.841Z,10.18
2019-03-03T02:40:01.855Z,10.22
2019-03-03T02:41:01.802Z,10.15
2019-03-03T02:42:01.774Z,10.15
2019-03-03T02:43:01.753Z,10.11
2019-03-03T02:44:01.728Z,10.14
2019-03-03T02:45:01.712Z,10.17
2019-03-03T02:46:01.690Z,10.17
2019-03-03T02:47:01.664Z,10.17
2019-03-03T02:48:01.640Z,10.17
2019-03-03T02:49:01.619Z,10.22
2019-03-03T02:50:01.597Z,10.25
2019-03-03T02:51:01.597Z,10.14
2019-03-03T02:52:01.552Z,10.18
2019-03-03T02:53:01.529Z,10.18
2019-03-03T02:54:01.519Z,10.14
2019-03-03T02:55:01.483Z,10.17
2019-03-03T02:56:01.464Z,10.14
2019-03-03T02:57:01.442Z,10.18
2019-03-03T02:58:01.417Z,10.18
2019-03-03T02:59:01.391Z,10.18
2019-03-03T03:00:01.369Z,10.22
2019-03-03T03:01:01.351Z,10.08
2019-03-03T03:02:01.330Z,10.23
2019-03-03T03:03:01.310Z,10.11
2019-03-03T03:04:01.278Z,10.22
2019-03-03T03:05:01.258Z,10.23
2019-03-03T03:06:01.232Z,10.18
2019-03-03T03:07:01.210Z,10.14
2019-03-03T03:08:01.188Z,10.17
2019-03-03T03:09:01.169Z,10.14
2019-03-03T03:10:01.144Z,10.09
2019-03-03T03:11:01.122Z,10.15
2019-03-03T03:12:01.096Z,10.05
2019-03-03T03:13:01.076Z,10.08
2019-03-03T03:14:01.055Z,10.15
2019-03-03T03:15:01.032Z,10.09
2019-03-03T03:16:01.008Z,10.08
2019-03-03T03:17:00.993Z,10.18
2019-03-03T03:18:00.961Z,10.04
2019-03-03T03:19:00.941Z,10.05
2019-03-03T03:20:00.929Z,10.04
2019-03-03T03:21:00.897Z,10.07
2019-03-03T03:22:00.874Z,10.04
2019-03-03T03:23:00.852Z,10.14
2019-03-03T03:24:00.831Z,10.08
2019-03-03T03:25:00.837Z,10.07
2019-03-03T03:26:00.782Z,10.12
2019-03-03T03:27:00.765Z,10.07
2019-03-03T03:28:00.742Z,10.04
2019-03-03T03:29:00.727Z,10.12
2019-03-03T03:30:00.693Z,10.08
2019-03-03T03:31:00.673Z,10.01
2019-03-03T03:32:00.659Z,10.07
2019-03-03T03:33:00.649Z,10.09
2019-03-03T03:34:00.636Z,10.04
2019-03-03T03:35:00.984Z,10.04
2019-03-03T03:36:00.557Z,10.07
2019-03-03T03:37:00.546Z,10.09
2019-03-03T03:38:00.514Z,10.08
2019-03-03T03:39:00.489Z,10.09
2019-03-03T03:40:00.477Z,10.08
2019-03-03T03:41:00.445Z,10.18
2019-03-03T03:42:00.423Z,10.15
2019-03-03T03:43:00.402Z,10.14
2019-03-03T03:44:00.377Z,10.22
2019-03-03T03:45:00.518Z,10.27
2019-03-03T03:46:00.333Z,10.23
2019-03-03T03:47:00.317Z,10.15
2019-03-03T03:48:00.291Z,10.14
2019-03-03T03:49:00.266Z,10.15
2019-03-03T03:50:00.243Z,10.14
2019-03-03T03:51:00.230Z,10.15
2019-03-03T03:52:00.200Z,10.23
2019-03-03T03:53:00.174Z,10.14
2019-03-03T03:54:00.152Z,10.18
2019-03-03T03:55:00.481Z,10.18
2019-03-03T03:56:00.108Z,10.27
2019-03-03T03:57:00.087Z,10.14
2019-03-03T03:58:00.064Z,10.23
2019-03-03T03:59:00.039Z,10.22
2019-03-03T04:00:00.019Z,10.26
2019-03-03T04:01:00.096Z,10.27
2019-03-03T04:01:59.970Z,10.32
2019-03-03T04:02:59.949Z,10.26
2019-03-03T04:03:59.932Z,10.22
2019-03-03T04:04:59.904Z,10.27
2019-03-03T04:05:59.881Z,10.27
2019-03-03T04:06:59.863Z,10.29
2019-03-03T04:07:59.843Z,10.27
2019-03-03T04:09:01.919Z,10.26
2019-03-03T04:09:59.799Z,10.30
2019-03-03T04:10:59.769Z,10.26
2019-03-03T04:11:59.748Z,10.26
2019-03-03T04:12:59.728Z,10.29
2019-03-03T04:13:59.701Z,10.33
2019-03-03T04:14:59.682Z,10.23
2019-03-03T04:15:59.661Z,10.32
2019-03-03T04:16:59.636Z,10.26
2019-03-03T04:17:59.629Z,10.29
2019-03-03T04:18:59.590Z,10.27
2019-03-03T04:19:59.569Z,10.26
2019-03-03T04:20:59.553Z,10.29
2019-03-03T04:21:59.521Z,10.32
2019-03-03T04:22:59.499Z,10.26
2019-03-03T04:23:59.479Z,10.33
2019-03-03T04:24:59.456Z,10.34
2019-03-03T04:25:59.431Z,10.26
2019-03-03T04:26:59.415Z,10.27
2019-03-03T04:27:59.389Z,10.30
2019-03-03T04:28:59.368Z,10.30
2019-03-03T04:29:59.342Z,10.38
2019-03-03T04:30:59.320Z,10.25
2019-03-03T04:31:59.295Z,10.29
2019-03-03T04:32:59.290Z,10.30
2019-03-03T04:33:59.255Z,10.30
2019-03-03T04:34:59.243Z,10.26
2019-03-03T04:35:59.207Z,10.30
2019-03-03T04:36:59.184Z,10.25
2019-03-03T04:37:59.162Z,10.30
2019-03-03T04:38:59.139Z,10.26
2019-03-03T04:39:59.126Z,10.29
2019-03-03T04:40:59.095Z,10.32
2019-03-03T04:41:59.071Z,10.26
2019-03-03T04:42:59.050Z,10.26
2019-03-03T04:43:59.029Z,10.29
2019-03-03T04:44:59.003Z,10.27
2019-03-03T04:45:58.980Z,10.29
2019-03-03T04:46:58.957Z,10.18
2019-03-03T04:47:58.936Z,10.23
2019-03-03T04:48:58.913Z,10.18
2019-03-03T04:49:58.890Z,10.14
2019-03-03T04:50:58.869Z,10.14
2019-03-03T04:51:58.847Z,10.17
2019-03-03T04:52:58.825Z,10.08
2019-03-03T04:53:58.804Z,10.07
2019-03-03T04:54:58.779Z,9.99
2019-03-03T04:55:58.761Z,9.94
2019-03-03T04:56:58.735Z,9.96
2019-03-03T04:57:58.710Z,9.90
2019-03-03T04:58:58.699Z,9.90
2019-03-03T04:59:58.665Z,9.84
2019-03-03T05:00:58.653Z,9.79
2019-03-03T05:01:58.623Z,9.76
2019-03-03T05:02:58.601Z,9.76
2019-03-03T05:03:58.575Z,9.66
2019-03-03T05:04:58.554Z,9.75
2019-03-03T05:05:58.530Z,9.74
2019-03-03T05:06:58.514Z,9.69
2019-03-03T05:07:58.485Z,9.64
2019-03-03T05:08:58.464Z,9.64
2019-03-03T05:09:58.440Z,9.60
2019-03-03T05:10:58.419Z,9.64
2019-03-03T05:11:58.408Z,9.66
2019-03-03T05:12:58.380Z,9.54
2019-03-03T05:13:58.352Z,9.60
2019-03-03T05:14:58.328Z,9.58
2019-03-03T05:15:58.302Z,9.60
2019-03-03T05:16:58.280Z,9.56
2019-03-03T05:17:58.259Z,9.54
2019-03-03T05:18:58.233Z,9.58
2019-03-03T05:19:58.213Z,9.54
2019-03-03T05:20:58.199Z,9.54
2019-03-03T05:21:58.173Z,9.53
2019-03-03T05:22:58.143Z,9.48
2019-03-03T05:23:58.124Z,9.48
2019-03-03T05:24:58.100Z,9.42
2019-03-03T05:25:58.078Z,9.47
2019-03-03T05:26:58.075Z,9.48
2019-03-03T05:27:58.035Z,9.48
2019-03-03T05:28:58.009Z,9.46
2019-03-03T05:29:57.992Z,9.32
2019-03-03T05:30:57.965Z,9.31
2019-03-03T05:31:57.941Z,9.33
2019-03-03T05:32:57.923Z,9.29
2019-03-03T05:33:57.894Z,9.31
2019-03-03T05:34:57.872Z,9.33
2019-03-03T05:35:57.851Z,9.39
2019-03-03T05:36:57.832Z,9.36
2019-03-03T05:37:57.815Z,9.40
2019-03-03T05:38:57.783Z,9.47
2019-03-03T05:39:57.757Z,9.40
2019-03-03T05:40:57.737Z,9.38
2019-03-03T05:41:57.715Z,9.43
2019-03-03T05:42:57.692Z,9.40
2019-03-03T05:43:57.669Z,9.33
2019-03-03T05:44:57.647Z,9.43
2019-03-03T05:45:57.629Z,9.36
2019-03-03T05:46:57.601Z,9.42
2019-03-03T05:47:57.578Z,9.39
2019-03-03T05:48:57.558Z,9.47
2019-03-03T05:49:57.530Z,9.40
2019-03-03T05:50:57.508Z,9.50
2019-03-03T05:51:57.495Z,9.46
2019-03-03T05:52:57.464Z,9.51
2019-03-03T05:53:57.441Z,9.47
2019-03-03T05:54:57.419Z,9.43
2019-03-03T05:55:57.396Z,9.54
2019-03-03T05:56:57.381Z,9.54
2019-03-03T05:57:57.353Z,9.50
2019-03-03T05:58:57.327Z,9.43
2019-03-03T05:59:57.314Z,9.50
2019-03-03T06:00:57.293Z,9.58
2019-03-03T06:01:57.262Z,9.42
2019-03-03T06:02:57.238Z,9.48
2019-03-03T06:03:57.212Z,9.56
2019-03-03T06:04:57.193Z,9.40
2019-03-03T06:05:57.169Z,9.48
2019-03-03T06:06:57.145Z,9.50
2019-03-03T06:07:57.149Z,9.43
2019-03-03T06:08:57.105Z,9.46
2019-03-03T06:09:57.078Z,9.48
2019-03-03T06:10:57.053Z,9.47
2019-03-03T06:11:57.029Z,9.46
2019-03-03T06:12:57.007Z,9.50
2019-03-03T06:13:56.985Z,9.47
2019-03-03T06:14:56.968Z,9.43
2019-03-03T06:15:56.939Z,9.40
2019-03-03T06:16:56.915Z,9.40
2019-03-03T06:17:56.892Z,9.40
2019-03-03T06:18:56.871Z,9.39
2019-03-03T06:19:56.851Z,9.40
2019-03-03T06:20:56.826Z,9.33
2019-03-03T06:21:56.802Z,9.40
2019-03-03T06:22:56.778Z,9.32
2019-03-03T06:23:56.762Z,9.31
2019-03-03T06:24:56.733Z,9.35
2019-03-03T06:25:56.714Z,9.26
2019-03-03T06:26:56.686Z,9.39
2019-03-03T06:27:56.662Z,9.33
2019-03-03T06:28:56.641Z,9.24
2019-03-03T06:29:56.618Z,9.24
2019-03-03T06:30:56.596Z,9.24
2019-03-03T06:31:56.572Z,9.26
2019-03-03T06:32:56.562Z,9.26
2019-03-03T06:33:56.526Z,9.35
2019-03-03T06:34:56.502Z,9.28
2019-03-03T06:35:56.478Z,9.23
2019-03-03T06:36:56.455Z,9.23
2019-03-03T06:37:56.434Z,9.24
2019-03-03T06:38:56.413Z,9.24
2019-03-03T06:39:56.398Z,9.31
2019-03-03T06:40:56.366Z,9.32
2019-03-03T06:41:56.341Z,9.33
2019-03-03T06:42:56.320Z,9.26
2019-03-03T06:43:56.301Z,9.29
2019-03-03T06:44:56.273Z,9.32
2019-03-03T06:45:56.259Z,9.23
2019-03-03T06:46:56.231Z,9.24
2019-03-03T06:47:56.240Z,9.29
2019-03-03T06:48:56.183Z,9.26
2019-03-03T06:49:56.160Z,9.40
2019-03-03T06:50:56.137Z,9.31
2019-03-03T06:51:56.113Z,9.32
2019-03-03T06:52:56.102Z,9.36
2019-03-03T06:53:56.069Z,9.31
2019-03-03T06:54:56.045Z,9.18
2019-03-03T06:55:56.023Z,9.32
2019-03-03T06:56:56.000Z,9.33
2019-03-03T06:57:55.978Z,9.33
2019-03-03T06:58:55.952Z,9.31
2019-03-03T06:59:55.930Z,9.32
2019-03-03T07:00:55.907Z,9.23
2019-03-03T07:01:55.886Z,9.24
2019-03-03T07:02:55.859Z,9.31
2019-03-03T07:03:55.844Z,9.32
2019-03-03T07:04:55.815Z,9.36
2019-03-03T07:05:55.798Z,9.36
2019-03-03T07:06:55.772Z,9.33
2019-03-03T07:07:55.753Z,9.29
2019-03-03T07:08:55.725Z,9.33
2019-03-03T07:09:55.701Z,9.32
2019-03-03T07:10:55.693Z,9.35
2019-03-03T07:11:55.660Z,9.31
2019-03-03T07:12:55.645Z,9.32
2019-03-03T07:13:55.608Z,9.28
2019-03-03T07:14:55.590Z,9.33
2019-03-03T07:15:55.565Z,9.24
2019-03-03T07:16:55.551Z,9.28
2019-03-03T07:17:55.517Z,9.33
2019-03-03T07:18:55.495Z,9.26
2019-03-03T07:19:55.485Z,9.33
2019-03-03T07:20:55.451Z,9.29
2019-03-03T07:21:55.441Z,9.35
2019-03-03T07:22:55.403Z,9.29
2019-03-03T07:23:55.381Z,9.33
2019-03-03T07:24:55.358Z,9.33
2019-03-03T07:25:55.335Z,9.33
2019-03-03T07:26:55.317Z,9.29
2019-03-03T07:27:55.289Z,9.36
2019-03-03T07:28:55.266Z,9.36
2019-03-03T07:29:55.248Z,9.35
2019-03-03T07:30:55.227Z,9.29
2019-03-03T07:31:55.206Z,9.32
2019-03-03T07:32:55.174Z,9.35
2019-03-03T07:33:55.156Z,9.33
2019-03-03T07:34:55.132Z,9.39
2019-03-03T07:35:55.108Z,9.35
2019-03-03T07:36:55.083Z,9.31
2019-03-03T07:37:55.059Z,9.31
2019-03-03T07:38:55.042Z,9.31
2019-03-03T07:39:55.015Z,9.33
2019-03-03T07:40:54.995Z,9.24
2019-03-03T07:41:54.971Z,9.35
2019-03-03T07:42:54.948Z,9.39
2019-03-03T07:43:54.925Z,9.36
2019-03-03T07:44:54.907Z,9.33
2019-03-03T07:45:54.880Z,9.33
2019-03-03T07:46:54.864Z,9.36
2019-03-03T07:47:54.832Z,9.29
2019-03-03T07:48:54.865Z,9.31
2019-03-03T07:49:54.800Z,9.36
2019-03-03T07:50:54.774Z,9.32
2019-03-03T07:51:54.743Z,9.32
2019-03-03T07:52:54.721Z,9.33
2019-03-03T07:53:54.704Z,9.38
2019-03-03T07:54:54.673Z,9.32
2019-03-03T07:55:54.648Z,9.33
2019-03-03T07:56:54.625Z,9.43
2019-03-03T07:57:54.604Z,9.38
2019-03-03T07:58:54.591Z,9.33
2019-03-03T07:59:54.556Z,9.38
2019-03-03T08:00:54.540Z,9.39
2019-03-03T08:01:54.514Z,9.38
2019-03-03T08:02:54.494Z,9.33
2019-03-03T08:03:54.476Z,9.40
2019-03-03T08:04:54.444Z,9.32
2019-03-03T08:05:54.430Z,9.43
2019-03-03T08:06:54.397Z,9.38
2019-03-03T08:07:54.375Z,9.38
2019-03-03T08:08:54.353Z,9.39
2019-03-03T08:09:54.330Z,9.38
2019-03-03T08:10:54.307Z,9.46
2019-03-03T08:11:54.284Z,9.48
2019-03-03T08:12:54.262Z,9.43
2019-03-03T08:13:54.238Z,9.40
2019-03-03T08:14:54.213Z,9.46
2019-03-03T08:15:54.197Z,9.50
2019-03-03T08:16:54.175Z,9.47
2019-03-03T08:17:54.146Z,9.47
2019-03-03T08:18:54.123Z,9.40
2019-03-03T08:19:54.104Z,9.50
2019-03-03T08:20:54.078Z,9.53
2019-03-03T08:21:54.054Z,9.50
2019-03-03T08:22:54.034Z,9.47
2019-03-03T08:23:54.008Z,9.42
2019-03-03T08:24:53.998Z,9.53
2019-03-03T08:25:53.965Z,9.48
2019-03-03T08:26:53.950Z,9.48
2019-03-03T08:27:53.919Z,9.57
2019-03-03T08:28:53.897Z,9.57
2019-03-03T08:29:53.872Z,9.57
2019-03-03T08:30:53.851Z,9.57
2019-03-03T08:31:53.826Z,9.43
2019-03-03T08:32:53.805Z,9.58
2019-03-03T08:33:53.781Z,9.47
2019-03-03T08:34:53.762Z,9.47
2019-03-03T08:35:53.737Z,9.48
2019-03-03T08:36:53.714Z,9.57
2019-03-03T08:37:53.692Z,9.57
2019-03-03T08:38:53.670Z,9.54
2019-03-03T08:39:53.650Z,9.54
2019-03-03T08:40:53.623Z,9.56
2019-03-03T08:41:53.607Z,9.50
2019-03-03T08:42:53.584Z,9.60
2019-03-03T08:43:53.560Z,9.57
2019-03-03T08:44:53.531Z,9.60
2019-03-03T08:45:53.525Z,9.57
2019-03-03T08:46:53.487Z,9.60
2019-03-03T08:47:53.541Z,9.61
2019-03-03T08:48:53.444Z,9.51
2019-03-03T08:49:53.429Z,9.54
2019-03-03T08:50:53.403Z,9.54
2019-03-03T08:51:53.371Z,9.54
2019-03-03T08:52:53.349Z,9.54
2019-03-03T08:53:53.327Z,9.58
2019-03-03T08:54:53.305Z,9.61
2019-03-03T08:55:53.281Z,9.56
2019-03-03T08:56:53.263Z,9.57
2019-03-03T08:57:53.237Z,9.54
2019-03-03T08:58:53.213Z,9.57
2019-03-03T08:59:53.199Z,9.64
2019-03-03T09:00:53.172Z,9.54
2019-03-03T09:01:53.145Z,9.60
2019-03-03T09:02:53.124Z,9.58
2019-03-03T09:03:53.107Z,9.57
2019-03-03T09:04:53.083Z,9.58
2019-03-03T09:05:53.055Z,9.61
2019-03-03T09:06:53.040Z,9.60
2019-03-03T09:07:53.020Z,9.64
2019-03-03T09:08:52.989Z,9.56
2019-03-03T09:09:52.964Z,9.57
2019-03-03T09:10:52.943Z,9.61
2019-03-03T09:11:52.920Z,9.53
2019-03-03T09:12:52.897Z,9.60
2019-03-03T09:13:52.877Z,9.56
2019-03-03T09:14:52.853Z,9.61
2019-03-03T09:15:52.830Z,9.60
2019-03-03T09:16:52.806Z,9.60
2019-03-03T09:17:52.790Z,9.61
2019-03-03T09:18:52.776Z,9.61
2019-03-03T09:19:52.742Z,9.61
2019-03-03T09:20:52.715Z,9.51
2019-03-03T09:21:52.695Z,9.64
2019-03-03T09:22:52.675Z,9.60
2019-03-03T09:23:52.648Z,9.64
2019-03-03T09:24:52.628Z,9.57
2019-03-03T09:25:52.605Z,9.60
2019-03-03T09:26:52.589Z,9.65
2019-03-03T09:27:52.562Z,9.64
2019-03-03T09:28:52.544Z,9.61
2019-03-03T09:29:52.517Z,9.65
2019-03-03T09:30:52.492Z,9.64
2019-03-03T09:31:52.476Z,9.66
2019-03-03T09:32:52.449Z,9.66
2019-03-03T09:33:52.430Z,9.61
2019-03-03T09:34:52.413Z,9.57
2019-03-03T09:35:52.380Z,9.68
2019-03-03T09:36:52.367Z,9.69
2019-03-03T09:37:52.342Z,9.75
2019-03-03T09:38:52.316Z,9.71
2019-03-03T09:39:52.293Z,9.71
2019-03-03T09:40:52.268Z,9.76
2019-03-03T09:41:52.242Z,9.71
2019-03-03T09:42:52.231Z,9.69
2019-03-03T09:43:52.196Z,9.75
2019-03-03T09:44:52.172Z,9.71
2019-03-03T09:45:52.156Z,9.69
2019-03-03T09:46:52.138Z,9.75
2019-03-03T09:47:52.120Z,9.76
2019-03-03T09:48:52.087Z,9.78
2019-03-03T09:49:52.064Z,9.76
2019-03-03T09:50:52.049Z,9.87
2019-03-03T09:51:52.030Z,9.78
2019-03-03T09:52:51.996Z,9.79
2019-03-03T09:53:51.977Z,9.83
2019-03-03T09:54:51.950Z,9.81
2019-03-03T09:55:51.936Z,9.83
2019-03-03T09:56:51.903Z,9.81
2019-03-03T09:57:51.884Z,9.84
2019-03-03T09:58:51.857Z,9.86
2019-03-03T09:59:51.839Z,9.84
2019-03-03T10:00:51.813Z,9.86
2019-03-03T10:01:51.795Z,9.89
2019-03-03T10:02:51.768Z,9.87
2019-03-03T10:03:51.750Z,9.86
2019-03-03T10:04:51.728Z,9.94
2019-03-03T10:05:51.718Z,9.87
2019-03-03T10:06:51.679Z,9.87
2019-03-03T10:07:51.659Z,9.91
2019-03-03T10:08:51.645Z,9.94
2019-03-03T10:09:51.618Z,9.94
2019-03-03T10:10:51.595Z,9.94
2019-03-03T10:11:51.573Z,9.94
2019-03-03T10:12:51.546Z,9.93
2019-03-03T10:13:51.518Z,9.99
2019-03-03T10:14:51.504Z,10.01
2019-03-03T10:15:51.480Z,10.08
2019-03-03T10:16:51.451Z,9.99
2019-03-03T10:17:51.431Z,10.12
2019-03-03T10:18:51.409Z,10.08
2019-03-03T10:19:51.386Z,10.07
2019-03-03T10:20:51.365Z,10.12
2019-03-03T10:21:51.350Z,10.07
2019-03-03T10:22:51.331Z,10.07
2019-03-03T10:23:51.299Z,10.18
2019-03-03T10:24:51.273Z,10.17
2019-03-03T10:25:51.259Z,10.15
2019-03-03T10:26:51.255Z,10.15
2019-03-03T10:27:51.210Z,10.07
2019-03-03T10:28:51.183Z,10.12
2019-03-03T10:29:51.160Z,10.18
2019-03-03T10:30:51.154Z,10.20
2019-03-03T10:31:51.117Z,10.17
2019-03-03T10:32:51.096Z,10.20
2019-03-03T10:33:51.076Z,10.17
2019-03-03T10:34:51.059Z,10.14
2019-03-03T10:35:51.032Z,10.18
2019-03-03T10:36:51.004Z,10.17
2019-03-03T10:37:50.984Z,10.17
2019-03-03T10:38:50.959Z,10.22
2019-03-03T10:39:50.951Z,10.12
2019-03-03T10:40:50.915Z,10.14
2019-03-03T10:41:50.898Z,10.25
2019-03-03T10:42:50.867Z,10.23
2019-03-03T10:43:50.850Z,10.27
2019-03-03T10:44:50.828Z,10.27
2019-03-03T10:45:50.811Z,10.29
2019-03-03T10:46:50.783Z,10.26
2019-03-03T10:47:50.757Z,10.27
2019-03-03T10:48:50.734Z,10.29
2019-03-03T10:49:50.718Z,10.32
2019-03-03T10:50:50.687Z,10.29
2019-03-03T10:51:50.667Z,10.36
2019-03-03T10:52:50.648Z,10.29
2019-03-03T10:53:50.628Z,10.27
2019-03-03T10:54:50.607Z,10.27
2019-03-03T10:55:50.582Z,10.33
2019-03-03T10:56:50.555Z,10.36
2019-03-03T10:57:50.546Z,10.40
2019-03-03T10:58:50.516Z,10.40
2019-03-03T10:59:55.114Z,10.36
2019-03-03T11:00:50.467Z,10.41
2019-03-03T11:01:50.468Z,10.45
2019-03-03T11:02:50.434Z,10.38
2019-03-03T11:03:50.415Z,10.41
2019-03-03T11:04:50.375Z,10.38
2019-03-03T11:05:50.360Z,10.36
2019-03-03T11:06:50.332Z,10.48
2019-03-03T11:07:50.310Z,10.42
2019-03-03T11:08:50.310Z,10.48
2019-03-03T11:09:50.279Z,10.36
2019-03-03T11:10:57.353Z,10.48
2019-03-03T11:11:50.221Z,10.51
2019-03-03T11:12:50.218Z,10.51
2019-03-03T11:13:50.210Z,10.47
2019-03-03T11:14:50.154Z,10.45
2019-03-03T11:15:50.130Z,10.41
2019-03-03T11:16:50.120Z,10.48
2019-03-03T11:17:50.111Z,10.44
2019-03-03T11:18:56.080Z,10.47
2019-03-03T11:19:50.052Z,10.48
2019-03-03T11:20:50.020Z,10.47
2019-03-03T11:21:49.996Z,10.52
2019-03-03T11:22:49.975Z,10.48
2019-03-03T11:23:49.964Z,10.51
2019-03-03T11:24:49.947Z,10.48
2019-03-03T11:25:49.930Z,10.51
2019-03-03T11:26:49.886Z,10.53
2019-03-03T11:27:49.863Z,10.53
2019-03-03T11:28:49.847Z,10.45
2019-03-03T11:29:49.825Z,10.55
2019-03-03T11:30:49.810Z,10.56
2019-03-03T11:31:49.771Z,10.52
2019-03-03T11:32:49.755Z,10.51
2019-03-03T11:33:49.729Z,10.47
2019-03-03T11:34:49.706Z,10.52
2019-03-03T11:35:49.687Z,10.47
2019-03-03T11:36:49.685Z,10.51
2019-03-03T11:37:49.649Z,10.48
2019-03-03T11:38:49.629Z,10.47
2019-03-03T11:39:49.600Z,10.52
2019-03-03T11:40:49.574Z,10.48
2019-03-03T11:41:49.549Z,10.48
2019-03-03T11:42:49.529Z,10.52
2019-03-03T11:43:49.514Z,10.59
2019-03-03T11:44:49.491Z,10.53
2019-03-03T11:45:49.465Z,10.53
2019-03-03T11:46:49.440Z,10.53
2019-03-03T11:47:49.425Z,10.48
2019-03-03T11:48:49.396Z,10.59
2019-03-03T11:49:49.379Z,10.66
2019-03-03T11:50:49.353Z,10.67
2019-03-03T11:51:49.328Z,10.66
2019-03-03T11:52:49.321Z,10.68
2019-03-03T11:53:49.283Z,10.64
2019-03-03T11:54:49.261Z,10.64
2019-03-03T11:55:49.244Z,10.64
2019-03-03T11:56:49.216Z,10.68
2019-03-03T11:57:49.196Z,10.66
2019-03-03T11:58:49.175Z,10.61
2019-03-03T11:59:49.157Z,10.71
2019-03-03T12:00:49.135Z,10.70
2019-03-03T12:01:49.108Z,10.68
2019-03-03T12:02:54.039Z,10.74
2019-03-03T12:03:49.063Z,10.63
2019-03-03T12:04:49.043Z,10.78
2019-03-03T12:05:49.015Z,10.78
2019-03-03T12:06:49.005Z,10.78
2019-03-03T12:07:48.983Z,10.71
2019-03-03T12:08:48.963Z,10.78
2019-03-03T12:09:48.928Z,10.84
2019-03-03T12:10:48.909Z,10.82
2019-03-03T12:11:48.889Z,10.79
2019-03-03T12:12:48.867Z,10.84
2019-03-03T12:13:48.848Z,10.78
2019-03-03T12:14:48.818Z,10.81
2019-03-03T12:15:48.803Z,10.85
2019-03-03T12:16:48.777Z,10.81
2019-03-03T12:17:48.761Z,10.81
2019-03-03T12:18:48.751Z,10.94
2019-03-03T12:19:48.718Z,10.88
2019-03-03T12:20:48.691Z,10.85
2019-03-03T12:21:48.664Z,10.91
2019-03-03T12:22:48.646Z,10.94
2019-03-03T12:23:48.629Z,10.85
2019-03-03T12:24:48.601Z,10.94
2019-03-03T12:25:48.583Z,10.88
2019-03-03T12:26:48.552Z,10.89
2019-03-03T12:27:48.530Z,10.92
2019-03-03T12:28:48.510Z,10.96
2019-03-03T12:29:48.489Z,10.97
2019-03-03T12:30:48.467Z,10.88
2019-03-03T12:31:48.447Z,10.94
2019-03-03T12:32:48.422Z,10.91
2019-03-03T12:33:48.409Z,10.85
2019-03-03T12:34:48.395Z,10.85
2019-03-03T12:35:48.355Z,10.89
2019-03-03T12:36:48.333Z,10.89
2019-03-03T12:37:48.314Z,10.89
2019-03-03T12:38:48.288Z,10.91
2019-03-03T12:39:48.270Z,10.91
2019-03-03T12:40:48.255Z,10.91
2019-03-03T12:41:48.234Z,10.88
2019-03-03T12:42:48.206Z,10.86
2019-03-03T12:43:48.193Z,10.94
2019-03-03T12:44:48.156Z,10.88
2019-03-03T12:45:48.141Z,10.94
2019-03-03T12:46:48.117Z,10.92
2019-03-03T12:47:48.110Z,10.92
2019-03-03T12:48:48.075Z,11.00
2019-03-03T12:49:48.047Z,10.94
2019-03-03T12:50:48.025Z,10.96
2019-03-03T12:51:48.011Z,11.00
2019-03-03T12:52:47.989Z,10.92
2019-03-03T12:53:47.959Z,11.02
2019-03-03T12:54:47.955Z,10.99
2019-03-03T12:55:47.930Z,10.96
2019-03-03T12:56:47.895Z,11.00
2019-03-03T12:57:47.881Z,11.03
2019-03-03T12:58:47.855Z,11.02
2019-03-03T12:59:47.828Z,10.99
2019-03-03T13:00:47.808Z,10.99
2019-03-03T13:01:47.791Z,10.99
2019-03-03T13:02:47.763Z,11.03
2019-03-03T13:03:47.741Z,11.02